createdAt,value
2022-09-14T00:01:49.483Z,100310.28
2022-09-14T00:04:18.333Z,100300.06
2022-09-14T00:06:45.116Z,100313.81
2022-09-14T00:09:16.184Z,100301.75
2022-09-14T00:11:42.586Z,100302.78
2022-09-14T00:14:08.975Z,100293.09
2022-09-14T00:16:38.060Z,100295.69
2022-09-14T00:19:15.876Z,100303.78
2022-09-14T00:21:42.473Z,100298.75
2022-09-14T00:24:11.265Z,100291.94
2022-09-14T00:26:37.720Z,100291.94
2022-09-14T00:29:05.141Z,100287.88
2022-09-14T00:31:34.573Z,100285.53
2022-09-14T00:34:01.854Z,100276.78
2022-09-14T00:36:29.808Z,100278.59
2022-09-14T00:38:56.996Z,100270.84
2022-09-14T00:41:33.554Z,100268.47
2022-09-14T00:44:04.536Z,100273.69
2022-09-14T00:46:35.131Z,100266.88
2022-09-14T00:49:04.035Z,100265.25
2022-09-14T00:51:33.261Z,100259.25
2022-09-14T00:54:04.027Z,100250.00
2022-09-14T00:56:31.228Z,100253.88
2022-09-14T00:58:59.461Z,100256.25
2022-09-14T01:01:26.789Z,100249.81
2022-09-14T01:03:53.156Z,100253.47
2022-09-14T01:06:46.772Z,100245.00
2022-09-14T01:09:15.810Z,100238.91
2022-09-14T01:11:58.558Z,100248.69
2022-09-14T01:14:49.022Z,100250.50
2022-09-14T01:17:26.706Z,100246.19
2022-09-14T01:20:36.311Z,100242.72
2022-09-14T01:23:14.176Z,100246.31
2022-09-14T01:26:09.244Z,100247.25
2022-09-14T01:28:41.262Z,100250.81
2022-09-14T01:31:15.776Z,100250.81
2022-09-14T01:33:53.529Z,100257.69
2022-09-14T01:36:20.523Z,100259.28
2022-09-14T01:38:53.668Z,100255.91
2022-09-14T01:41:24.878Z,100253.00
2022-09-14T01:44:04.030Z,100253.94
2022-09-14T01:46:36.866Z,100255.69
2022-09-14T01:49:11.888Z,100254.69
2022-09-14T01:51:45.595Z,100253.06
2022-09-14T01:54:23.586Z,100253.78
2022-09-14T01:56:55.385Z,100252.81
2022-09-14T01:59:29.255Z,100254.44
2022-09-14T02:02:20.558Z,100250.59
2022-09-14T02:04:53.076Z,100244.56
2022-09-14T02:07:20.186Z,100240.44
2022-09-14T02:09:48.931Z,100238.88
2022-09-14T02:12:16.404Z,100251.22
2022-09-14T02:14:43.924Z,100243.59
2022-09-14T02:17:10.436Z,100249.56
2022-09-14T02:19:43.395Z,100244.53
2022-09-14T02:22:09.710Z,100248.03
2022-09-14T02:24:36.645Z,100251.38
2022-09-14T02:27:04.331Z,100252.16
2022-09-14T02:29:31.184Z,100249.66
2022-09-14T02:32:30.429Z,100244.50
2022-09-14T02:35:21.922Z,100242.59
2022-09-14T02:37:54.134Z,100245.06
2022-09-14T02:40:28.609Z,100242.34
2022-09-14T02:43:23.407Z,100239.94
2022-09-14T02:46:01.598Z,100241.38
2022-09-14T02:48:58.547Z,100232.44
2022-09-14T02:51:29.255Z,100232.41
2022-09-14T02:54:06.618Z,100232.41
2022-09-14T02:56:34.117Z,100231.59
2022-09-14T02:59:00.633Z,100233.31
2022-09-14T03:01:27.890Z,100229.91
2022-09-14T03:03:54.485Z,100228.00
2022-09-14T03:06:20.833Z,100226.16
2022-09-14T03:08:47.813Z,100225.69
2022-09-14T03:11:14.172Z,100222.25
2022-09-14T03:13:41.024Z,100221.81
2022-09-14T03:16:13.478Z,100222.00
2022-09-14T03:18:40.150Z,100219.38
2022-09-14T03:21:11.981Z,100218.47
2022-09-14T03:23:49.303Z,100235.75
2022-09-14T03:26:19.248Z,100233.13
2022-09-14T03:28:50.849Z,100226.13
2022-09-14T03:31:17.481Z,100232.28
2022-09-14T03:33:43.902Z,100218.38
2022-09-14T03:36:12.757Z,100226.16
2022-09-14T03:38:43.255Z,100215.69
2022-09-14T03:41:10.583Z,100213.25
2022-09-14T03:43:37.804Z,100202.16
2022-09-14T03:46:08.513Z,100206.59
2022-09-14T03:48:34.884Z,100195.31
2022-09-14T03:51:02.653Z,100194.41
2022-09-14T03:53:29.440Z,100201.56
2022-09-14T03:55:55.985Z,100192.94
2022-09-14T03:58:22.797Z,100196.53
2022-09-14T04:00:49.608Z,100192.25
2022-09-14T04:03:16.123Z,100195.97
2022-09-14T04:05:42.669Z,100189.75
2022-09-14T04:08:09.048Z,100192.25
2022-09-14T04:10:35.339Z,100185.53
2022-09-14T04:13:01.908Z,100176.00
2022-09-14T04:15:28.286Z,100179.41
2022-09-14T04:17:54.576Z,100179.47
2022-09-14T04:20:20.883Z,100181.25
2022-09-14T04:22:47.435Z,100175.19
2022-09-14T04:25:13.763Z,100174.91
2022-09-14T04:27:40.103Z,100187.03
2022-09-14T04:30:06.882Z,100179.06
2022-09-14T04:32:34.560Z,100177.97
2022-09-14T04:35:01.265Z,100175.56
2022-09-14T04:37:31.159Z,100178.94
2022-09-14T04:39:57.497Z,100183.06
2022-09-14T04:42:23.920Z,100171.66
2022-09-14T04:44:50.222Z,100171.47
2022-09-14T04:47:16.597Z,100184.44
2022-09-14T04:49:42.985Z,100187.66
2022-09-14T04:52:09.438Z,100191.84
2022-09-14T04:54:35.752Z,100190.91
2022-09-14T04:57:02.148Z,100196.03
2022-09-14T04:59:28.459Z,100198.38
2022-09-14T05:01:54.809Z,100201.66
2022-09-14T05:04:21.144Z,100201.66
2022-09-14T05:06:47.707Z,100193.00
2022-09-14T05:09:16.945Z,100186.94
2022-09-14T05:11:43.744Z,100198.88
2022-09-14T05:14:12.977Z,100187.44
2022-09-14T05:16:40.608Z,100186.53
2022-09-14T05:19:10.868Z,100188.31
2022-09-14T05:21:37.981Z,100191.63
2022-09-14T05:24:07.945Z,100194.03
2022-09-14T05:26:34.267Z,100188.78
2022-09-14T05:29:02.218Z,100179.00
2022-09-14T05:31:30.900Z,100177.25
2022-09-14T05:33:57.920Z,100174.81
2022-09-14T05:36:25.096Z,100177.22
2022-09-14T05:38:51.881Z,100176.13
2022-09-14T05:41:18.395Z,100177.00
2022-09-14T05:43:45.317Z,100184.78
2022-09-14T05:46:14.051Z,100184.78
2022-09-14T05:48:41.428Z,100182.84
2022-09-14T05:51:28.343Z,100188.06
2022-09-14T05:53:57.734Z,100195.03
2022-09-14T05:56:28.602Z,100187.06
2022-09-14T05:58:55.513Z,100188.63
2022-09-14T06:01:24.503Z,100194.59
2022-09-14T06:03:53.900Z,100208.41
2022-09-14T06:06:20.893Z,100199.75
2022-09-14T06:08:51.005Z,100197.13
2022-09-14T06:11:20.034Z,100196.91
2022-09-14T06:13:49.907Z,100188.06
2022-09-14T06:16:19.595Z,100191.47
2022-09-14T06:18:46.600Z,100190.56
2022-09-14T06:21:18.826Z,100184.19
2022-09-14T06:23:46.482Z,100191.78
2022-09-14T06:26:13.267Z,100188.06
2022-09-14T06:28:39.936Z,100175.53
2022-09-14T06:31:07.606Z,100177.78
2022-09-14T06:33:34.843Z,100170.59
2022-09-14T06:36:12.113Z,100167.66
2022-09-14T06:38:39.729Z,100181.53
2022-09-14T06:41:09.070Z,100174.03
2022-09-14T06:43:38.814Z,100173.19
2022-09-14T06:46:15.296Z,100175.66
2022-09-14T06:49:06.636Z,100172.09
2022-09-14T06:51:35.831Z,100161.41
2022-09-14T06:54:03.570Z,100162.25
2022-09-14T06:56:35.663Z,100169.69
2022-09-14T06:59:02.500Z,100165.91
2022-09-14T07:01:29.852Z,100169.25
2022-09-14T07:03:57.079Z,100172.53
2022-09-14T07:06:25.663Z,100164.41
2022-09-14T07:08:52.883Z,100169.34
2022-09-14T07:11:22.488Z,100168.84
2022-09-14T07:13:49.190Z,100177.09
2022-09-14T07:16:15.697Z,100170.09
2022-09-14T07:18:42.168Z,100173.59
2022-09-14T07:21:17.158Z,100178.53
2022-09-14T07:23:45.395Z,100180.81
2022-09-14T07:26:17.559Z,100179.63
2022-09-14T07:28:46.900Z,100175.50
2022-09-14T07:31:31.628Z,100173.28
2022-09-14T07:33:59.969Z,100174.63
2022-09-14T07:36:29.447Z,100166.22
2022-09-14T07:38:58.169Z,100168.59
2022-09-14T07:41:27.194Z,100163.72
2022-09-14T07:43:56.789Z,100166.75
2022-09-14T07:46:23.966Z,100167.13
2022-09-14T07:48:55.588Z,100159.81
2022-09-14T07:51:22.093Z,100168.44
2022-09-14T07:53:48.389Z,100166.75
2022-09-14T07:56:16.438Z,100172.81
2022-09-14T07:58:43.233Z,100166.47
2022-09-14T08:01:12.519Z,100164.69
2022-09-14T08:03:45.820Z,100166.50
2022-09-14T08:06:19.130Z,100164.56
2022-09-14T08:08:48.024Z,100153.00
2022-09-14T08:11:29.634Z,100153.38
2022-09-14T08:13:58.805Z,100149.28
2022-09-14T08:16:27.741Z,100138.78
2022-09-14T08:19:00.059Z,100143.59
2022-09-14T08:21:27.911Z,100149.63
2022-09-14T08:23:54.963Z,100148.88
2022-09-14T08:26:23.313Z,100156.03
2022-09-14T08:28:50.825Z,100149.75
2022-09-14T08:31:20.949Z,100149.75
2022-09-14T08:33:52.443Z,100149.31
2022-09-14T08:36:21.167Z,100148.47
2022-09-14T08:38:48.312Z,100146.63
2022-09-14T08:41:35.265Z,100146.38
2022-09-14T08:44:23.607Z,100150.91
2022-09-14T08:46:55.803Z,100150.34
2022-09-14T08:49:34.282Z,100156.53
2022-09-14T08:52:00.704Z,100148.00
2022-09-14T08:54:27.070Z,100146.44
2022-09-14T08:57:09.305Z,100134.94
2022-09-14T08:59:55.045Z,100133.16
2022-09-14T09:02:36.055Z,100123.94
2022-09-14T09:05:41.480Z,100134.00
2022-09-14T09:08:19.537Z,100132.03
2022-09-14T09:10:47.153Z,100121.81
2022-09-14T09:13:23.071Z,100123.56
2022-09-14T09:15:52.815Z,100113.69
2022-09-14T09:18:31.646Z,100115.25
2022-09-14T09:21:04.055Z,100130.44
2022-09-14T09:23:33.062Z,100122.34
2022-09-14T09:26:15.812Z,100119.66
2022-09-14T09:28:51.302Z,100117.97
2022-09-14T09:31:19.778Z,100113.63
2022-09-14T09:33:49.485Z,100116.13
2022-09-14T09:36:16.163Z,100111.44
2022-09-14T09:38:42.567Z,100105.81
2022-09-14T09:41:14.799Z,100102.69
2022-09-14T09:44:00.375Z,100092.59
2022-09-14T09:46:32.490Z,100103.72
2022-09-14T09:49:02.975Z,100101.03
2022-09-14T09:51:32.670Z,100099.31
2022-09-14T09:54:13.937Z,100098.44
2022-09-14T09:57:02.441Z,100085.22
2022-09-14T09:59:36.353Z,100077.03
2022-09-14T10:02:29.177Z,100070.56
2022-09-14T10:05:03.894Z,100073.50
2022-09-14T10:07:33.272Z,100076.97
2022-09-14T10:10:05.537Z,100080.16
2022-09-14T10:12:32.686Z,100079.25
2022-09-14T10:15:16.539Z,100083.91
2022-09-14T10:18:16.655Z,100088.41
2022-09-14T10:20:53.007Z,100082.97
2022-09-14T10:23:19.386Z,100086.00
2022-09-14T10:25:52.375Z,100081.84
2022-09-14T10:28:28.284Z,100082.97
2022-09-14T10:31:25.596Z,100083.47
2022-09-14T10:33:56.410Z,100089.78
2022-09-14T10:36:25.778Z,100079.88
2022-09-14T10:38:58.374Z,100077.38
2022-09-14T10:41:37.709Z,100084.19
2022-09-14T10:44:37.641Z,100080.28
2022-09-14T10:47:09.778Z,100082.97
2022-09-14T10:50:06.962Z,100077.72
2022-09-14T10:52:39.377Z,100080.44
2022-09-14T10:55:34.261Z,100088.41
2022-09-14T10:58:18.026Z,100095.00
2022-09-14T11:00:59.598Z,100088.97
2022-09-14T11:03:46.178Z,100089.91
2022-09-14T11:06:23.305Z,100092.78
2022-09-14T11:08:57.488Z,100076.59
2022-09-14T11:11:40.114Z,100079.31
2022-09-14T11:14:33.303Z,100075.94
2022-09-14T11:17:21.210Z,100071.03
2022-09-14T11:20:15.504Z,100082.69
2022-09-14T11:22:53.158Z,100087.22
2022-09-14T11:25:27.373Z,100093.16
2022-09-14T11:27:59.568Z,100079.56
2022-09-14T11:31:07.456Z,100071.88
2022-09-14T11:33:39.551Z,100074.66
2022-09-14T11:36:34.598Z,100067.72
2022-09-14T11:39:31.729Z,100071.44
2022-09-14T11:42:20.690Z,100058.78
2022-09-14T11:44:50.137Z,100065.81
2022-09-14T11:47:18.810Z,100072.81
2022-09-14T11:50:17.720Z,100072.34
2022-09-14T11:52:43.999Z,100069.34
2022-09-14T11:55:17.219Z,100069.91
2022-09-14T11:57:45.781Z,100066.19
2022-09-14T12:00:24.046Z,100053.16
2022-09-14T12:03:21.531Z,100048.13
2022-09-14T12:05:49.851Z,100050.81
2022-09-14T12:08:39.612Z,100041.84
2022-09-14T12:11:08.872Z,100043.81
2022-09-14T12:13:38.453Z,100048.16
2022-09-14T12:16:07.483Z,100039.25
2022-09-14T12:18:38.962Z,100038.78
2022-09-14T12:21:24.026Z,100050.63
2022-09-14T12:23:56.944Z,100050.69
2022-09-14T12:26:23.198Z,100053.44
2022-09-14T12:28:52.196Z,100062.59
2022-09-14T12:31:52.590Z,100064.53
2022-09-14T12:34:33.084Z,100065.94
2022-09-14T12:37:27.054Z,100070.72
2022-09-14T12:40:36.491Z,100067.41
2022-09-14T12:43:37.144Z,100066.97
2022-09-14T12:46:10.601Z,100070.47
2022-09-14T12:48:49.236Z,100069.19
2022-09-14T12:51:31.325Z,100073.44
2022-09-14T12:54:25.977Z,100074.81
2022-09-14T12:57:11.131Z,100070.47
2022-09-14T12:59:57.686Z,100070.03
2022-09-14T13:02:36.062Z,100070.88
2022-09-14T13:05:07.897Z,100075.50
2022-09-14T13:07:36.095Z,100071.16
2022-09-14T13:10:06.272Z,100071.22
2022-09-14T13:12:41.152Z,100060.25
2022-09-14T13:15:18.403Z,100057.47
2022-09-14T13:18:03.540Z,100054.84
2022-09-14T13:20:33.749Z,100052.56
2022-09-14T13:23:00.792Z,100050.25
2022-09-14T13:25:34.428Z,100046.78
2022-09-14T13:28:21.491Z,100038.56
2022-09-14T13:30:56.678Z,100037.94
2022-09-14T13:33:23.793Z,100038.88
2022-09-14T13:36:02.061Z,100030.56
2022-09-14T13:38:37.484Z,100025.06
2022-09-14T13:41:13.541Z,100028.44
2022-09-14T13:43:41.661Z,100026.59
2022-09-14T13:46:09.719Z,100022.16
2022-09-14T13:48:39.821Z,100024.19
2022-09-14T13:51:07.467Z,100025.91
2022-09-14T13:53:57.486Z,100013.75
2022-09-14T13:56:31.084Z,100018.28
2022-09-14T13:59:06.707Z,100002.72
2022-09-14T14:01:40.799Z,100006.34
2022-09-14T14:04:23.982Z,100008.81
2022-09-14T14:07:12.241Z,100003.81
2022-09-14T14:09:50.488Z,100006.81
2022-09-14T14:12:37.389Z,100008.94
2022-09-14T14:15:26.528Z,99998.06
2022-09-14T14:17:54.131Z,100005.53
2022-09-14T14:20:26.352Z,99998.84
2022-09-14T14:23:07.929Z,99990.16
2022-09-14T14:25:47.520Z,99988.81
2022-09-14T14:28:28.503Z,99984.81
2022-09-14T14:30:56.882Z,99991.38
2022-09-14T14:33:23.675Z,99989.84
2022-09-14T14:35:53.692Z,99979.25
2022-09-14T14:38:22.336Z,99979.78
2022-09-14T14:40:49.919Z,99976.38
2022-09-14T14:43:21.866Z,99971.09
2022-09-14T14:45:48.344Z,99955.78
2022-09-14T14:48:14.698Z,99959.84
2022-09-14T14:50:41.185Z,99958.06
2022-09-14T14:53:07.634Z,99948.19
2022-09-14T14:55:37.541Z,99950.16
2022-09-14T14:58:08.536Z,99955.97
2022-09-14T15:00:36.718Z,99952.50
2022-09-14T15:03:03.301Z,99957.09
2022-09-14T15:05:30.956Z,99942.59
2022-09-14T15:07:57.948Z,99931.72
2022-09-14T15:10:25.973Z,99942.69
2022-09-14T15:12:52.414Z,99940.75
2022-09-14T15:15:23.725Z,99931.91
2022-09-14T15:17:50.877Z,99935.41
2022-09-14T15:20:19.544Z,99932.78
2022-09-14T15:22:47.399Z,99930.59
2022-09-14T15:25:14.499Z,99935.84
2022-09-14T15:27:41.278Z,99925.31
2022-09-14T15:30:09.097Z,99932.00
2022-09-14T15:32:36.400Z,99924.47
2022-09-14T15:35:03.286Z,99919.84
2022-09-14T15:37:29.667Z,99917.63
2022-09-14T15:39:56.009Z,99917.81
2022-09-14T15:42:22.748Z,99916.38
2022-09-14T15:44:49.028Z,99919.13
2022-09-14T15:47:15.418Z,99919.72
2022-09-14T15:49:45.094Z,99922.22
2022-09-14T15:52:12.282Z,99928.34
2022-09-14T15:54:38.970Z,99922.94
2022-09-14T15:57:07.999Z,99918.00
2022-09-14T15:59:34.755Z,99919.41
2022-09-14T16:02:01.093Z,99926.75
2022-09-14T16:04:27.560Z,99927.19
2022-09-14T16:06:53.851Z,99933.91
2022-09-14T16:09:22.201Z,99929.00
2022-09-14T16:11:48.714Z,99927.31
2022-09-14T16:14:15.070Z,99939.63
2022-09-14T16:16:41.694Z,99934.00
2022-09-14T16:19:11.674Z,99930.00
2022-09-14T16:21:38.361Z,99925.16
2022-09-14T16:24:07.218Z,99929.06
2022-09-14T16:26:37.925Z,99917.50
2022-09-14T16:29:06.168Z,99920.00
2022-09-14T16:31:35.101Z,99910.91
2022-09-14T16:34:06.637Z,99922.56
2022-09-14T16:36:38.097Z,99933.44
2022-09-14T16:39:07.076Z,99929.47
2022-09-14T16:41:33.617Z,99923.34
2022-09-14T16:44:02.514Z,99915.56
2022-09-14T16:46:30.133Z,99909.16
2022-09-14T16:48:58.535Z,99905.03
2022-09-14T16:51:27.003Z,99912.50
2022-09-14T16:53:53.937Z,99912.66
2022-09-14T16:56:25.529Z,99908.91
2022-09-14T16:58:54.128Z,99921.13
2022-09-14T17:01:29.663Z,99922.19
2022-09-14T17:03:58.710Z,99918.78
2022-09-14T17:06:30.296Z,99918.63
2022-09-14T17:09:03.359Z,99917.28
2022-09-14T17:11:32.096Z,99919.28
2022-09-14T17:13:58.709Z,99922.44
2022-09-14T17:16:26.513Z,99924.50
2022-09-14T17:18:56.232Z,99925.47
2022-09-14T17:21:25.407Z,99922.50
2022-09-14T17:23:52.391Z,99927.13
2022-09-14T17:26:20.402Z,99927.13
2022-09-14T17:28:49.502Z,99934.09
2022-09-14T17:31:18.738Z,99933.94
2022-09-14T17:33:45.852Z,99936.41
2022-09-14T17:36:12.236Z,99943.34
2022-09-14T17:38:40.879Z,99934.63
2022-09-14T17:41:10.291Z,99936.56
2022-09-14T17:43:37.866Z,99929.91
2022-09-14T17:46:05.696Z,99932.53
2022-09-14T17:48:37.044Z,99933.50
2022-09-14T17:51:09.295Z,99933.84
2022-09-14T17:53:40.750Z,99936.25
2022-09-14T17:56:09.122Z,99937.78
2022-09-14T17:58:36.399Z,99936.25
2022-09-14T18:01:10.247Z,99932.69
2022-09-14T18:03:38.792Z,99933.78
2022-09-14T18:06:07.162Z,99932.53
2022-09-14T18:08:33.781Z,99939.59
2022-09-14T18:11:12.199Z,99932.81
2022-09-14T18:13:46.423Z,99928.41
2022-09-14T18:16:14.759Z,99928.22
2022-09-14T18:18:41.491Z,99924.75
2022-09-14T18:21:08.786Z,99929.63
2022-09-14T18:23:35.993Z,99926.88
2022-09-14T18:26:04.224Z,99923.19
2022-09-14T18:28:31.029Z,99923.19
2022-09-14T18:31:04.608Z,99918.81
2022-09-14T18:33:31.352Z,99925.00
2022-09-14T18:35:57.738Z,99927.44
2022-09-14T18:38:24.430Z,99924.66
2022-09-14T18:40:50.716Z,99932.47
2022-09-14T18:43:17.145Z,99931.25
2022-09-14T18:45:44.711Z,99929.09
2022-09-14T18:48:11.732Z,99930.19
2022-09-14T18:50:38.888Z,99937.56
2022-09-14T18:53:05.429Z,99934.06
2022-09-14T18:55:33.079Z,99934.28
2022-09-14T18:58:00.488Z,99937.38
2022-09-14T19:00:27.136Z,99936.75
2022-09-14T19:02:55.215Z,99932.66
2022-09-14T19:05:23.512Z,99935.28
2022-09-14T19:07:49.911Z,99929.50
2022-09-14T19:10:16.807Z,99932.47
2022-09-14T19:12:43.448Z,99940.84
2022-09-14T19:15:11.254Z,99933.19
2022-09-14T19:17:38.152Z,99934.38
2022-09-14T19:20:06.673Z,99932.25
2022-09-14T19:22:33.385Z,99929.22
2022-09-14T19:24:59.695Z,99935.03
2022-09-14T19:27:26.226Z,99936.06
2022-09-14T19:29:52.575Z,99939.63
2022-09-14T19:32:19.305Z,99932.19
2022-09-14T19:34:45.618Z,99935.25
2022-09-14T19:37:11.881Z,99930.00
2022-09-14T19:39:38.203Z,99928.41
2022-09-14T19:42:04.770Z,99934.16
2022-09-14T19:44:31.084Z,99941.66
2022-09-14T19:46:57.347Z,99936.44
2022-09-14T19:49:25.098Z,99936.69
2022-09-14T19:51:53.456Z,99938.72
2022-09-14T19:54:20.330Z,99942.69
2022-09-14T19:56:46.748Z,99941.94
2022-09-14T19:59:13.604Z,99933.59
2022-09-14T20:01:40.487Z,99931.25
2022-09-14T20:04:07.851Z,99931.16
2022-09-14T20:06:38.003Z,99920.78
2022-09-14T20:09:07.438Z,99926.06
2022-09-14T20:11:36.007Z,99922.19
2022-09-14T20:14:04.290Z,99918.72
2022-09-14T20:16:34.146Z,99923.38
2022-09-14T20:19:10.121Z,99929.00
2022-09-14T20:21:37.444Z,99922.31
2022-09-14T20:24:19.306Z,99924.38
2022-09-14T20:26:47.541Z,99924.25
2022-09-14T20:29:15.193Z,99929.25
2022-09-14T20:31:41.571Z,99927.75
2022-09-14T20:34:07.903Z,99924.31
2022-09-14T20:36:34.311Z,99923.53
2022-09-14T20:39:00.793Z,99927.00
2022-09-14T20:41:30.059Z,99930.09
2022-09-14T20:43:56.855Z,99930.41
2022-09-14T20:46:44.325Z,99924.75
2022-09-14T20:49:13.265Z,99927.94
2022-09-14T20:51:39.994Z,99927.22
2022-09-14T20:54:07.884Z,99932.44
2022-09-14T20:56:35.489Z,99934.16
2022-09-14T20:59:04.200Z,99935.28
2022-09-14T21:01:34.628Z,99938.22
2022-09-14T21:04:04.526Z,99936.31
2022-09-14T21:06:31.213Z,99937.25
2022-09-14T21:08:59.775Z,99935.47
2022-09-14T21:11:26.846Z,99934.81
2022-09-14T21:13:55.627Z,99932.53
2022-09-14T21:16:27.545Z,99927.44
2022-09-14T21:19:02.800Z,99924.94
2022-09-14T21:21:30.347Z,99931.25
2022-09-14T21:23:57.970Z,99934.06
2022-09-14T21:26:25.514Z,99930.72
2022-09-14T21:28:57.261Z,99925.84
2022-09-14T21:31:25.095Z,99929.53
2022-09-14T21:33:54.123Z,99928.28
2022-09-14T21:36:23.228Z,99921.41
2022-09-14T21:39:00.080Z,99921.97
2022-09-14T21:41:29.047Z,99920.91
2022-09-14T21:43:57.127Z,99924.31
2022-09-14T21:46:24.632Z,99922.50
2022-09-14T21:48:51.937Z,99912.06
2022-09-14T21:51:29.978Z,99908.56
2022-09-14T21:54:01.972Z,99910.56
2022-09-14T21:56:30.393Z,99901.94
2022-09-14T21:58:59.258Z,99896.81
2022-09-14T22:01:26.837Z,99897.84
2022-09-14T22:03:54.448Z,99900.84
2022-09-14T22:06:23.545Z,99900.63
2022-09-14T22:08:52.096Z,99899.78
2022-09-14T22:11:24.364Z,99906.59
2022-09-14T22:14:20.371Z,99907.50
2022-09-14T22:16:47.559Z,99908.53
2022-09-14T22:19:16.580Z,99900.72
2022-09-14T22:21:43.854Z,99899.13
2022-09-14T22:24:13.862Z,99903.06
2022-09-14T22:26:40.763Z,99903.06
2022-09-14T22:29:12.738Z,99901.13
2022-09-14T22:31:41.076Z,99894.06
2022-09-14T22:34:08.030Z,99896.69
2022-09-14T22:36:34.656Z,99893.47
2022-09-14T22:39:01.095Z,99885.94
2022-09-14T22:41:28.350Z,99880.72
2022-09-14T22:43:55.314Z,99885.00
2022-09-14T22:46:23.044Z,99874.44
2022-09-14T22:48:50.426Z,99887.63
2022-09-14T22:51:20.987Z,99890.03
2022-09-14T22:53:47.327Z,99875.25
2022-09-14T22:56:21.487Z,99869.78
2022-09-14T22:58:48.692Z,99872.41
2022-09-14T23:01:24.302Z,99872.91
2022-09-14T23:04:11.355Z,99856.75
2022-09-14T23:06:43.879Z,99857.63
2022-09-14T23:09:13.392Z,99860.69
2022-09-14T23:11:39.736Z,99865.88
2022-09-14T23:14:06.056Z,99860.41
2022-09-14T23:16:32.458Z,99865.25
2022-09-14T23:19:04.654Z,99866.59
2022-09-14T23:21:31.463Z,99859.31
2022-09-14T23:24:04.144Z,99861.81
2022-09-14T23:26:30.698Z,99859.69
2022-09-14T23:28:59.692Z,99854.34
2022-09-14T23:31:28.192Z,99856.78
2022-09-14T23:33:55.850Z,99854.00
2022-09-14T23:36:23.429Z,99852.63
2022-09-14T23:38:50.235Z,99853.63
2022-09-14T23:41:18.201Z,99857.25
2022-09-14T23:43:44.677Z,99849.91
2022-09-14T23:46:11.227Z,99856.03
2022-09-14T23:48:37.560Z,99850.50
2022-09-14T23:51:05.858Z,99846.94
2022-09-14T23:53:32.604Z,99850.34
2022-09-14T23:55:59.184Z,99846.03
2022-09-14T23:58:25.567Z,99853.59
